Time;durP1;ratioP1;P1;durP2;ratioP2;P2;SDS_P1;SDS_P2;PMS_P1;PMS_P2;Temp;Humidity;BMP_temperature;BMP_pressure;BME280_temperature;BME280_humidity;BME280_pressure;Samples;Min_cycle;Max_cycle;Signal;HPM_P1;HPM_P2
2023/08/06 00:00:22;;;;;;;2.13;1.30;;;18.30;83.10;;;;;;5045533;28;20079;-66
2023/08/06 00:02:49;;;;;;;2.63;1.65;;;18.30;83.10;;;;;;5049093;28;20098;-66
2023/08/06 00:05:17;;;;;;;1.27;1.10;;;18.20;83.10;;;;;;5047609;28;20633;-65
2023/08/06 00:07:44;;;;;;;1.25;1.00;;;18.30;83.10;;;;;;5048409;28;20352;-62
2023/08/06 00:10:10;;;;;;;2.80;1.33;;;18.30;83.10;;;;;;5052924;28;20123;-65
2023/08/06 00:12:36;;;;;;;1.75;1.42;;;18.30;83.10;;;;;;5048234;28;20148;-65
2023/08/06 00:15:02;;;;;;;1.50;1.20;;;18.30;83.20;;;;;;5037794;28;20033;-62
2023/08/06 00:17:27;;;;;;;1.67;1.25;;;18.30;83.10;;;;;;5054775;28;20108;-62
2023/08/06 00:19:53;;;;;;;1.70;1.58;;;18.30;83.20;;;;;;5039754;28;20353;-62
2023/08/06 00:22:19;;;;;;;1.35;1.00;;;18.30;83.20;;;;;;5047184;28;20435;-62
2023/08/06 00:24:44;;;;;;;1.23;1.15;;;18.30;83.20;;;;;;5043979;28;20526;-65
2023/08/06 00:27:10;;;;;;;2.83;1.10;;;18.30;83.20;;;;;;5051361;28;20263;-63
2023/08/06 00:29:36;;;;;;;3.08;1.48;;;18.30;83.20;;;;;;5029009;28;20653;-62
2023/08/06 00:32:01;;;;;;;1.55;1.20;;;18.30;83.20;;;;;;5036787;28;20032;-62
2023/08/06 00:34:27;;;;;;;1.73;1.00;;;18.30;83.20;;;;;;5056009;28;20033;-62
2023/08/06 00:36:53;;;;;;;1.70;1.30;;;18.30;83.30;;;;;;5055117;28;20079;-62
2023/08/06 00:39:19;;;;;;;2.45;1.60;;;18.30;83.40;;;;;;5046091;28;20388;-62
2023/08/06 00:41:45;;;;;;;1.75;1.20;;;18.30;83.40;;;;;;5056835;28;20032;-66
2023/08/06 00:44:10;;;;;;;2.13;1.48;;;18.30;83.40;;;;;;5044798;28;20025;-65
2023/08/06 00:46:36;;;;;;;1.58;1.33;;;18.20;83.30;;;;;;5042822;28;20025;-65
2023/08/06 00:49:02;;;;;;;2.20;1.40;;;18.20;83.40;;;;;;5057599;28;20104;-65
2023/08/06 00:51:28;;;;;;;1.38;1.02;;;18.20;83.50;;;;;;5053758;28;20029;-65
2023/08/06 00:53:54;;;;;;;1.73;1.40;;;18.20;83.50;;;;;;5051574;28;20048;-65
2023/08/06 00:56:20;;;;;;;1.05;1.00;;;18.20;83.50;;;;;;5057127;28;20111;-62
2023/08/06 00:58:46;;;;;;;7.28;2.03;;;18.20;83.50;;;;;;5050205;28;20499;-62
2023/08/06 01:01:12;;;;;;;2.08;1.70;;;18.10;83.50;;;;;;5045591;28;20483;-62
2023/08/06 01:03:38;;;;;;;1.33;1.10;;;18.10;83.60;;;;;;5056162;28;20048;-65
2023/08/06 01:06:04;;;;;;;1.88;1.73;;;18.00;83.70;;;;;;5049713;28;20025;-64
2023/08/06 01:08:54;;;;;;;1.65;1.30;;;18.00;83.90;;;;;;5046601;28;20029;-63
2023/08/06 01:11:54;;;;;;;1.70;1.27;;;18.00;83.90;;;;;;5051876;28;20107;-62
2023/08/06 01:14:37;;;;;;;1.58;1.27;;;18.00;83.90;;;;;;5051346;28;20032;-62
2023/08/06 01:17:04;;;;;;;2.13;1.38;;;18.00;84.00;;;;;;5057067;28;20387;-63
2023/08/06 01:19:30;;;;;;;2.65;1.92;;;17.90;84.10;;;;;;5051533;28;20041;-62
2023/08/06 01:21:56;;;;;;;2.60;2.00;;;17.90;84.10;;;;;;5056133;28;20617;-63
2023/08/06 01:24:22;;;;;;;4.05;1.48;;;18.00;84.20;;;;;;5052088;28;20100;-63
2023/08/06 01:27:17;;;;;;;1.85;1.33;;;17.90;84.10;;;;;;5050649;28;20093;-64
2023/08/06 01:29:47;;;;;;;1.42;1.10;;;18.00;84.10;;;;;;5049902;28;20021;-64
2023/08/06 01:32:15;;;;;;;2.75;1.40;;;17.90;84.20;;;;;;5054282;28;20113;-64
2023/08/06 01:34:43;;;;;;;1.38;1.20;;;17.90;84.30;;;;;;5048789;28;20037;-64
2023/08/06 01:37:10;;;;;;;1.83;1.17;;;17.90;84.30;;;;;;5047570;28;20021;-64
2023/08/06 01:39:36;;;;;;;2.20;1.95;;;17.90;84.30;;;;;;5047276;28;20451;-64
2023/08/06 01:42:02;;;;;;;1.52;1.40;;;17.90;84.40;;;;;;5051257;28;20036;-64
2023/08/06 01:44:28;;;;;;;4.35;1.77;;;17.90;84.50;;;;;;5052251;28;20079;-64
2023/08/06 01:46:53;;;;;;;2.70;1.45;;;17.90;84.50;;;;;;5049670;28;20025;-62
2023/08/06 01:49:19;;;;;;;1.80;1.42;;;17.90;84.50;;;;;;5058776;28;20032;-62
2023/08/06 01:51:45;;;;;;;1.65;1.30;;;17.90;84.50;;;;;;5055322;28;20480;-64
2023/08/06 01:54:10;;;;;;;2.58;1.30;;;17.90;84.50;;;;;;5046530;28;20034;-64
2023/08/06 01:56:36;;;;;;;1.75;1.38;;;17.90;84.50;;;;;;5060318;28;20151;-62
2023/08/06 01:59:02;;;;;;;2.25;1.40;;;18.00;84.60;;;;;;5049960;28;20107;-62
2023/08/06 02:01:27;;;;;;;3.85;1.80;;;18.00;84.60;;;;;;5056860;28;20139;-62
2023/08/06 02:03:53;;;;;;;1.90;1.30;;;18.00;84.60;;;;;;5047221;28;20056;-62
2023/08/06 02:06:19;;;;;;;3.63;1.35;;;18.00;84.60;;;;;;5041977;28;20029;-62
2023/08/06 02:08:44;;;;;;;2.20;1.63;;;18.00;84.70;;;;;;5042787;28;20112;-64
2023/08/06 02:11:10;;;;;;;3.17;1.77;;;18.00;84.60;;;;;;5034127;28;20061;-64
2023/08/06 02:13:36;;;;;;;2.20;1.45;;;18.00;84.60;;;;;;5041434;28;20566;-64
2023/08/06 02:16:01;;;;;;;2.63;1.55;;;18.00;84.50;;;;;;5038534;28;20075;-64
2023/08/06 02:18:27;;;;;;;2.20;1.40;;;18.00;84.50;;;;;;5042948;28;20040;-62
2023/08/06 02:20:59;;;;;;;3.42;2.13;;;18.00;84.60;;;;;;5057762;28;20108;-64
2023/08/06 02:23:26;;;;;;;2.85;1.30;;;18.00;84.60;;;;;;5052070;28;20036;-64
2023/08/06 02:26:02;;;;;;;3.58;1.73;;;18.00;84.80;;;;;;5034353;28;20024;-64
2023/08/06 02:28:32;;;;;;;1.98;1.48;;;18.00;84.80;;;;;;5033658;28;20033;-64
2023/08/06 02:30:58;;;;;;;1.95;1.50;;;18.00;84.80;;;;;;5048906;28;20035;-64
2023/08/06 02:33:23;;;;;;;2.78;1.55;;;18.00;84.80;;;;;;5051472;28;20124;-62
2023/08/06 02:35:49;;;;;;;2.13;1.58;;;18.00;84.80;;;;;;5043231;28;20037;-65
2023/08/06 02:38:15;;;;;;;1.80;1.30;;;18.00;84.80;;;;;;5046746;28;20136;-65
2023/08/06 02:40:47;;;;;;;1.50;1.40;;;18.00;84.80;;;;;;5050930;28;20025;-62
2023/08/06 02:43:13;;;;;;;2.30;1.55;;;18.00;84.90;;;;;;5036093;28;20050;-65
2023/08/06 02:45:39;;;;;;;2.35;1.23;;;18.00;84.90;;;;;;5043214;28;20040;-62
2023/08/06 02:48:05;;;;;;;2.25;1.33;;;18.10;84.90;;;;;;5044114;28;20396;-62
2023/08/06 02:50:30;;;;;;;2.15;1.60;;;18.00;84.80;;;;;;5037681;28;20033;-65
2023/08/06 02:52:56;;;;;;;1.83;1.35;;;18.10;84.90;;;;;;5052649;28;20041;-65
2023/08/06 02:55:22;;;;;;;1.52;1.35;;;18.00;84.80;;;;;;5050087;28;20040;-64
2023/08/06 02:57:47;;;;;;;1.40;1.20;;;18.10;84.90;;;;;;5053420;28;20064;-64
2023/08/06 03:00:13;;;;;;;1.73;0.90;;;18.00;84.90;;;;;;5041786;28;20036;-64
2023/08/06 03:02:39;;;;;;;1.63;1.20;;;18.00;84.90;;;;;;5049908;28;20388;-65
2023/08/06 03:05:06;;;;;;;1.35;0.93;;;18.10;85.00;;;;;;5052910;28;20115;-65
2023/08/06 03:07:33;;;;;;;2.03;1.40;;;18.00;84.90;;;;;;5045236;28;20036;-65
2023/08/06 03:10:01;;;;;;;0.70;0.70;;;18.10;84.90;;;;;;5048748;28;20021;-65
2023/08/06 03:12:27;;;;;;;1.02;0.90;;;18.00;84.90;;;;;;5054697;28;20400;-65
2023/08/06 03:14:53;;;;;;;0.98;0.90;;;18.10;84.90;;;;;;5051052;28;20079;-65
2023/08/06 03:17:18;;;;;;;1.88;1.00;;;18.10;84.80;;;;;;5053615;28;20028;-65
2023/08/06 03:19:44;;;;;;;1.20;1.05;;;18.00;84.80;;;;;;5048856;28;20499;-62
2023/08/06 03:22:10;;;;;;;0.85;0.75;;;18.00;84.90;;;;;;5042780;28;20041;-65
2023/08/06 03:24:35;;;;;;;0.88;0.68;;;18.00;85.00;;;;;;5050376;28;20036;-65
2023/08/06 03:27:01;;;;;;;1.63;1.13;;;18.00;85.00;;;;;;5053073;28;20037;-65
2023/08/06 03:29:27;;;;;;;0.85;0.85;;;18.00;85.00;;;;;;5050700;28;20471;-65
2023/08/06 03:31:53;;;;;;;1.27;0.95;;;18.00;85.00;;;;;;5050539;28;20059;-62
2023/08/06 03:34:18;;;;;;;1.73;0.90;;;18.00;85.00;;;;;;5050362;28;20060;-65
2023/08/06 03:36:44;;;;;;;1.77;1.10;;;18.00;85.00;;;;;;5047130;28;20448;-62
2023/08/06 03:39:10;;;;;;;0.60;0.60;;;18.00;84.90;;;;;;5037462;28;20944;-62
2023/08/06 03:41:35;;;;;;;2.58;1.55;;;18.00;84.90;;;;;;5054181;28;20042;-62
2023/08/06 03:44:03;;;;;;;1.58;0.98;;;18.00;84.90;;;;;;5048040;28;20025;-62
2023/08/06 03:46:29;;;;;;;2.38;1.45;;;18.00;84.90;;;;;;5079650;28;20037;-62
2023/08/06 03:48:56;;;;;;;1.42;1.08;;;18.00;84.80;;;;;;5045223;28;20413;-64
2023/08/06 03:51:22;;;;;;;1.83;1.23;;;18.00;84.80;;;;;;5052393;28;20025;-62
2023/08/06 03:53:48;;;;;;;1.95;1.05;;;18.00;84.80;;;;;;5054802;28;20037;-62
2023/08/06 03:56:13;;;;;;;1.23;1.10;;;18.00;84.80;;;;;;5039202;28;20032;-62
2023/08/06 03:58:39;;;;;;;1.63;1.45;;;18.00;84.80;;;;;;5039437;28;20033;-64
2023/08/06 04:01:05;;;;;;;1.92;1.30;;;18.00;84.80;;;;;;5043386;28;20068;-64
2023/08/06 04:03:31;;;;;;;2.00;1.60;;;18.10;84.90;;;;;;5044441;28;20049;-64
2023/08/06 04:05:57;;;;;;;2.42;1.00;;;18.00;84.80;;;;;;5043040;28;20441;-64
2023/08/06 04:08:23;;;;;;;1.63;1.35;;;18.00;84.90;;;;;;5043926;28;20055;-65
2023/08/06 04:10:52;;;;;;;2.58;1.35;;;18.00;84.90;;;;;;5047557;28;20029;-62
2023/08/06 04:13:18;;;;;;;4.18;1.42;;;18.00;84.90;;;;;;5041162;28;20060;-65
2023/08/06 04:15:44;;;;;;;1.40;1.00;;;18.00;84.90;;;;;;5047870;28;20028;-64
2023/08/06 04:18:10;;;;;;;1.58;1.33;;;18.00;85.00;;;;;;5037532;28;20040;-62
2023/08/06 04:20:43;;;;;;;1.50;1.23;;;18.00;85.00;;;;;;5037796;28;20045;-62
2023/08/06 04:23:09;;;;;;;2.20;1.25;;;18.00;85.00;;;;;;5043670;28;20502;-62
2023/08/06 04:25:34;;;;;;;2.28;1.63;;;18.00;85.00;;;;;;5047608;28;20037;-62
2023/08/06 04:28:00;;;;;;;1.48;1.35;;;18.00;85.00;;;;;;5050585;28;20025;-62
2023/08/06 04:30:25;;;;;;;2.00;1.42;;;18.00;85.10;;;;;;5048815;28;20032;-62
2023/08/06 04:32:51;;;;;;;2.45;1.65;;;18.00;85.10;;;;;;5043380;28;20400;-62
2023/08/06 04:35:17;;;;;;;1.38;1.27;;;18.00;85.10;;;;;;5050189;28;20391;-65
2023/08/06 04:37:42;;;;;;;3.30;2.05;;;18.00;85.10;;;;;;5048780;28;20637;-62
2023/08/06 04:40:08;;;;;;;2.72;1.35;;;18.00;85.10;;;;;;5040543;28;20430;-62
2023/08/06 04:42:34;;;;;;;2.60;2.08;;;18.00;85.20;;;;;;5047264;28;20508;-62
2023/08/06 04:45:02;;;;;;;1.58;1.33;;;18.00;85.20;;;;;;5047588;28;20055;-65
2023/08/06 04:47:27;;;;;;;2.10;1.55;;;18.00;85.20;;;;;;5045298;28;20116;-64
2023/08/06 04:49:53;;;;;;;1.38;1.10;;;18.10;85.20;;;;;;5050283;28;20104;-62
2023/08/06 04:52:19;;;;;;;2.13;1.40;;;18.10;85.20;;;;;;5049541;28;20033;-65
2023/08/06 04:54:45;;;;;;;2.72;1.75;;;18.10;85.20;;;;;;5055157;28;20553;-65
2023/08/06 04:57:10;;;;;;;1.67;1.25;;;18.10;85.10;;;;;;5049870;28;20396;-65
2023/08/06 04:59:36;;;;;;;3.20;1.70;;;18.10;85.00;;;;;;5051470;28;20528;-65
2023/08/06 05:02:02;;;;;;;1.95;1.27;;;18.20;85.10;;;;;;5061588;28;20037;-62
2023/08/06 05:04:28;;;;;;;2.33;1.80;;;18.20;85.10;;;;;;5054158;28;20057;-62
2023/08/06 05:06:53;;;;;;;2.70;1.30;;;18.20;85.10;;;;;;5049236;28;20116;-62
2023/08/06 05:09:20;;;;;;;1.70;1.52;;;18.20;85.10;;;;;;5054159;28;20124;-65
2023/08/06 05:11:47;;;;;;;1.92;1.30;;;18.20;85.00;;;;;;5061052;28;20060;-62
2023/08/06 05:14:12;;;;;;;1.90;1.55;;;18.20;85.00;;;;;;5047446;28;20036;-62
2023/08/06 05:16:38;;;;;;;1.98;1.75;;;18.30;85.10;;;;;;5053083;28;20033;-63
2023/08/06 05:19:04;;;;;;;1.88;1.13;;;18.30;85.00;;;;;;5057733;28;20036;-62
2023/08/06 05:21:30;;;;;;;2.60;1.75;;;18.30;85.00;;;;;;5054527;28;20029;-62
2023/08/06 05:23:55;;;;;;;1.73;1.55;;;18.30;85.00;;;;;;5051649;28;20025;-63
2023/08/06 05:26:21;;;;;;;2.67;1.88;;;18.30;85.00;;;;;;5055369;28;20034;-62
2023/08/06 05:28:47;;;;;;;2.88;1.80;;;18.40;85.10;;;;;;5058805;28;20059;-63
2023/08/06 05:31:13;;;;;;;4.38;1.85;;;18.40;85.10;;;;;;5045147;28;20021;-62
2023/08/06 05:33:38;;;;;;;2.63;1.83;;;18.40;85.00;;;;;;5051970;28;20535;-62
2023/08/06 05:36:04;;;;;;;3.38;2.20;;;18.40;85.00;;;;;;5050410;28;20044;-62
2023/08/06 05:38:30;;;;;;;5.13;2.70;;;18.40;85.00;;;;;;5044464;28;20126;-65
2023/08/06 05:40:56;;;;;;;2.53;1.67;;;18.50;85.10;;;;;;5051438;28;20021;-62
2023/08/06 05:43:22;;;;;;;3.88;2.53;;;18.50;85.00;;;;;;5052537;28;20086;-65
2023/08/06 05:45:50;;;;;;;3.13;1.77;;;18.60;84.90;;;;;;5056971;28;20508;-62
2023/08/06 05:48:16;;;;;;;3.72;2.88;;;18.60;84.90;;;;;;5055332;28;20025;-62
2023/08/06 05:50:41;;;;;;;4.40;2.75;;;18.70;84.80;;;;;;5050998;28;20034;-63
2023/08/06 05:53:07;;;;;;;3.58;2.33;;;18.70;84.80;;;;;;5053562;28;20059;-62
2023/08/06 05:55:34;;;;;;;2.97;2.38;;;18.70;84.70;;;;;;5057548;28;20051;-63
2023/08/06 05:57:59;;;;;;;4.22;2.25;;;18.70;84.70;;;;;;5053619;28;20122;-65
2023/08/06 06:00:26;;;;;;;3.83;2.20;;;18.70;84.60;;;;;;5037012;28;20470;-65
2023/08/06 06:02:51;;;;;;;6.53;2.30;;;18.70;84.60;;;;;;5055991;28;20477;-66
2023/08/06 06:05:17;;;;;;;3.40;2.45;;;18.70;84.60;;;;;;5060282;28;20056;-65
2023/08/06 06:07:43;;;;;;;6.15;2.58;;;18.70;84.70;;;;;;5046803;28;20029;-62
2023/08/06 06:10:09;;;;;;;4.53;2.65;;;18.70;84.80;;;;;;5056522;28;20464;-62
2023/08/06 06:12:34;;;;;;;4.10;2.92;;;18.70;84.80;;;;;;5048568;28;20056;-62
2023/08/06 06:15:00;;;;;;;4.63;2.80;;;18.70;84.90;;;;;;5050280;28;20090;-62
2023/08/06 06:17:27;;;;;;;2.78;1.88;;;18.70;84.90;;;;;;5053748;28;20029;-62
2023/08/06 06:19:53;;;;;;;3.38;2.60;;;18.70;84.90;;;;;;5056210;28;20107;-62
2023/08/06 06:22:18;;;;;;;4.25;2.47;;;18.70;84.80;;;;;;5050986;28;20163;-63
2023/08/06 06:24:44;;;;;;;3.13;1.77;;;18.70;84.70;;;;;;5051402;28;20098;-62
2023/08/06 06:27:10;;;;;;;4.40;2.17;;;18.60;84.80;;;;;;5055752;28;20033;-66
2023/08/06 06:29:35;;;;;;;2.47;2.05;;;18.60;84.90;;;;;;5052122;28;20040;-62
2023/08/06 06:32:01;;;;;;;2.53;1.77;;;18.60;84.90;;;;;;5052898;28;20039;-63
2023/08/06 06:34:27;;;;;;;2.47;1.85;;;18.70;84.90;;;;;;5052395;28;20160;-62
2023/08/06 06:36:52;;;;;;;2.45;1.35;;;18.70;84.90;;;;;;5055653;28;20396;-65
2023/08/06 06:39:18;;;;;;;2.45;1.95;;;18.70;84.80;;;;;;5047998;28;20033;-65
2023/08/06 06:41:44;;;;;;;1.67;1.50;;;18.80;84.70;;;;;;5033779;28;20204;-62
2023/08/06 06:44:10;;;;;;;1.92;1.20;;;18.70;84.60;;;;;;5038326;28;20609;-65
2023/08/06 06:46:35;;;;;;;2.42;1.65;;;18.80;84.70;;;;;;5041595;28;20401;-62
2023/08/06 06:49:01;;;;;;;2.10;1.23;;;18.80;84.70;;;;;;5045082;28;20098;-62
2023/08/06 06:51:27;;;;;;;1.83;1.40;;;18.80;84.60;;;;;;5047561;28;20033;-63
2023/08/06 06:53:52;;;;;;;3.08;1.80;;;18.70;84.60;;;;;;5048258;28;20941;-64
2023/08/06 06:56:18;;;;;;;2.25;1.55;;;18.70;84.70;;;;;;5035698;28;20477;-66
2023/08/06 06:58:44;;;;;;;2.80;1.38;;;18.70;84.60;;;;;;5042155;28;20451;-65
2023/08/06 07:01:11;;;;;;;2.35;2.15;;;18.70;84.70;;;;;;5049445;28;20488;-71
2023/08/06 07:03:37;;;;;;;2.65;1.42;;;18.80;84.70;;;;;;5053005;28;20041;-70
2023/08/06 07:06:03;;;;;;;1.63;1.45;;;18.80;84.70;;;;;;5047654;28;20396;-65
2023/08/06 07:08:29;;;;;;;1.55;1.15;;;18.80;84.80;;;;;;5042784;28;20028;-68
2023/08/06 07:11:05;;;;;;;3.25;1.45;;;18.80;84.70;;;;;;5050863;28;20040;-64
2023/08/06 07:13:32;;;;;;;2.08;1.50;;;18.90;84.70;;;;;;5042165;28;20029;-68
2023/08/06 07:15:58;;;;;;;1.88;1.20;;;18.80;84.70;;;;;;5042758;28;20430;-69
2023/08/06 07:18:24;;;;;;;2.65;1.50;;;18.90;84.70;;;;;;5036512;28;20037;-64
2023/08/06 07:20:54;;;;;;;1.88;1.30;;;18.90;84.60;;;;;;5039767;28;20105;-64
2023/08/06 07:23:25;;;;;;;2.15;1.65;;;18.80;84.60;;;;;;5052307;28;20445;-65
2023/08/06 07:25:50;;;;;;;1.67;1.23;;;18.80;84.70;;;;;;5039727;28;20025;-64
2023/08/06 07:28:16;;;;;;;2.30;1.50;;;18.80;84.90;;;;;;5047151;28;20037;-63
2023/08/06 07:30:43;;;;;;;1.73;1.58;;;18.80;84.90;;;;;;5045729;28;20127;-63
2023/08/06 07:33:09;;;;;;;2.80;1.85;;;18.80;84.90;;;;;;5044113;28;20401;-64
2023/08/06 07:35:36;;;;;;;2.30;1.88;;;18.80;84.90;;;;;;5040895;28;20035;-65
2023/08/06 07:38:02;;;;;;;2.35;1.80;;;18.90;84.80;;;;;;5040961;28;20535;-63
2023/08/06 07:40:28;;;;;;;2.22;1.20;;;18.90;84.70;;;;;;5051606;28;20033;-63
2023/08/06 07:42:54;;;;;;;1.88;1.52;;;18.90;84.80;;;;;;5041842;28;20048;-65
2023/08/06 07:45:20;;;;;;;1.33;1.08;;;18.90;84.70;;;;;;5047196;28;20025;-65
2023/08/06 07:47:46;;;;;;;2.08;1.20;;;19.00;84.70;;;;;;5042885;28;20055;-63
2023/08/06 07:50:13;;;;;;;1.85;1.48;;;18.90;84.60;;;;;;5041895;28;20021;-63
2023/08/06 07:52:38;;;;;;;3.13;2.13;;;18.90;84.60;;;;;;5040990;28;20052;-63
2023/08/06 07:55:04;;;;;;;1.48;1.00;;;18.90;84.60;;;;;;5043337;28;20025;-63
2023/08/06 07:57:31;;;;;;;2.25;1.35;;;18.80;84.70;;;;;;5033697;28;20176;-63
2023/08/06 07:59:57;;;;;;;1.75;1.55;;;18.80;84.80;;;;;;5047208;28;20035;-63
2023/08/06 08:02:23;;;;;;;2.15;1.25;;;18.80;84.80;;;;;;5043881;28;20036;-63
2023/08/06 08:04:49;;;;;;;2.33;1.63;;;18.80;84.80;;;;;;5044058;28;20590;-63
2023/08/06 08:07:14;;;;;;;3.20;2.45;;;18.80;84.80;;;;;;5047844;28;20048;-63
2023/08/06 08:09:41;;;;;;;1.65;1.10;;;18.80;84.80;;;;;;5049809;28;20029;-65
2023/08/06 08:12:07;;;;;;;2.42;1.52;;;18.90;84.90;;;;;;5046419;28;20373;-63
2023/08/06 08:14:35;;;;;;;2.35;1.88;;;19.00;84.80;;;;;;5048012;28;20043;-65
2023/08/06 08:17:02;;;;;;;2.20;1.48;;;19.00;84.70;;;;;;5049066;28;20448;-66
2023/08/06 08:19:28;;;;;;;1.52;1.20;;;19.10;84.60;;;;;;5042405;28;20037;-63
2023/08/06 08:21:54;;;;;;;3.63;2.30;;;19.20;84.50;;;;;;5044584;28;20040;-63
2023/08/06 08:24:23;;;;;;;2.95;2.10;;;19.20;84.50;;;;;;5035726;28;20075;-63
2023/08/06 08:26:52;;;;;;;2.13;1.90;;;19.30;84.40;;;;;;5039478;28;20020;-64
2023/08/06 08:29:19;;;;;;;2.63;1.88;;;19.40;84.20;;;;;;5037951;28;20548;-64
2023/08/06 08:31:45;;;;;;;3.35;2.15;;;19.40;84.10;;;;;;5038352;28;20052;-65
2023/08/06 08:34:11;;;;;;;3.33;2.20;;;19.40;84.20;;;;;;5035751;28;20277;-65
2023/08/06 08:36:37;;;;;;;2.50;2.00;;;19.40;84.20;;;;;;5040940;28;20043;-63
2023/08/06 08:39:03;;;;;;;3.10;1.83;;;19.40;84.20;;;;;;5031130;28;20060;-65
2023/08/06 08:41:30;;;;;;;4.60;2.33;;;19.40;84.20;;;;;;5043117;28;20579;-65
2023/08/06 08:43:58;;;;;;;4.13;2.20;;;19.50;84.10;;;;;;5041447;28;20025;-63
2023/08/06 08:46:26;;;;;;;3.35;2.35;;;19.50;84.00;;;;;;5048888;28;20029;-63
2023/08/06 08:48:52;;;;;;;2.08;1.63;;;19.50;83.90;;;;;;5026043;28;20357;-63
2023/08/06 08:51:19;;;;;;;2.55;2.22;;;19.50;84.10;;;;;;5044209;28;20142;-63
2023/08/06 08:53:47;;;;;;;2.28;1.60;;;19.60;84.10;;;;;;5038896;28;20091;-63
2023/08/06 08:56:14;;;;;;;2.85;1.80;;;19.60;84.00;;;;;;5047994;28;20384;-63
2023/08/06 08:58:40;;;;;;;1.85;1.48;;;19.70;83.90;;;;;;5043005;28;20491;-63
2023/08/06 09:01:07;;;;;;;2.63;1.52;;;19.80;83.90;;;;;;5039364;28;20995;-63
2023/08/06 09:03:33;;;;;;;4.38;2.08;;;19.80;83.80;;;;;;5022980;28;20053;-63
2023/08/06 09:06:02;;;;;;;1.85;1.70;;;19.80;83.80;;;;;;5042276;28;20025;-64
2023/08/06 09:08:39;;;;;;;2.28;1.92;;;19.80;83.70;;;;;;5035695;28;20040;-65
2023/08/06 09:11:08;;;;;;;2.67;1.88;;;19.90;83.90;;;;;;5034889;28;20062;-64
2023/08/06 09:13:37;;;;;;;2.22;1.42;;;19.90;83.70;;;;;;5036397;28;20399;-65
2023/08/06 09:16:03;;;;;;;2.65;1.85;;;20.00;83.70;;;;;;5045785;28;20476;-64
2023/08/06 09:18:31;;;;;;;2.72;2.05;;;20.10;83.60;;;;;;5048797;28;20043;-65
2023/08/06 09:20:58;;;;;;;6.00;2.13;;;20.10;83.50;;;;;;5039514;28;20504;-66
2023/08/06 09:23:30;;;;;;;3.22;1.55;;;20.10;83.50;;;;;;5044401;28;20425;-72
2023/08/06 09:25:57;;;;;;;3.08;1.90;;;20.10;83.30;;;;;;5044598;28;20074;-64
2023/08/06 09:28:24;;;;;;;1.50;1.40;;;20.10;83.50;;;;;;5044121;28;20081;-63
2023/08/06 09:30:50;;;;;;;1.80;1.55;;;20.10;83.60;;;;;;5037997;28;20029;-64
2023/08/06 09:33:19;;;;;;;1.58;1.48;;;20.10;83.60;;;;;;5043764;28;20040;-65
2023/08/06 09:35:46;;;;;;;1.90;1.35;;;20.10;83.40;;;;;;5047040;28;20037;-66
2023/08/06 09:38:13;;;;;;;1.92;1.35;;;20.10;83.50;;;;;;5047278;28;20034;-66
2023/08/06 09:40:40;;;;;;;2.38;1.50;;;20.10;83.40;;;;;;5045070;28;20091;-63
2023/08/06 09:43:06;;;;;;;1.58;1.48;;;20.10;83.20;;;;;;5046808;28;20492;-66
2023/08/06 09:45:34;;;;;;;1.40;1.30;;;20.00;83.30;;;;;;5042670;28;20107;-62
2023/08/06 09:48:03;;;;;;;1.80;1.40;;;19.90;83.30;;;;;;5043973;28;20025;-66
2023/08/06 09:50:31;;;;;;;2.10;1.35;;;19.80;83.50;;;;;;5039515;28;20112;-64
2023/08/06 09:52:58;;;;;;;2.25;1.95;;;19.70;83.70;;;;;;5046933;28;20017;-66
2023/08/06 09:55:27;;;;;;;2.50;1.50;;;19.60;83.60;;;;;;5043388;28;20433;-63
2023/08/06 09:57:53;;;;;;;1.92;1.58;;;19.60;83.80;;;;;;5051039;28;20033;-65
2023/08/06 10:00:19;;;;;;;2.65;1.73;;;19.50;83.80;;;;;;5045652;28;21434;-64
2023/08/06 10:02:49;;;;;;;1.60;1.27;;;19.40;83.60;;;;;;5050398;28;20029;-64
2023/08/06 10:05:15;;;;;;;1.17;1.08;;;19.30;83.80;;;;;;5047062;28;20044;-75
2023/08/06 10:07:44;;;;;;;1.70;1.55;;;19.10;84.20;;;;;;5043489;28;20111;-65
2023/08/06 10:10:09;;;;;;;1.80;1.30;;;19.00;84.20;;;;;;5044853;28;20075;-63
2023/08/06 10:12:48;;;;;;;1.42;1.30;;;18.90;84.40;;;;;;5049064;28;20032;-65
2023/08/06 10:15:17;;;;;;;1.15;1.05;;;18.80;84.40;;;;;;5044320;28;20067;-65
2023/08/06 10:17:45;;;;;;;1.73;1.40;;;18.80;84.50;;;;;;5039094;28;20108;-65
2023/08/06 10:20:12;;;;;;;2.85;1.58;;;18.70;84.60;;;;;;5041001;28;20032;-65
2023/08/06 10:22:43;;;;;;;1.65;1.50;;;18.80;84.60;;;;;;5035260;28;21143;-66
2023/08/06 10:25:09;;;;;;;2.25;1.60;;;18.80;84.50;;;;;;5043050;28;20033;-66
2023/08/06 10:27:48;;;;;;;2.70;2.03;;;18.80;84.50;;;;;;5049412;28;20017;-64
2023/08/06 10:30:28;;;;;;;3.50;2.70;;;18.80;84.40;;;;;;5047664;28;20062;-65
2023/08/06 10:33:02;;;;;;;5.10;3.05;;;18.80;84.50;;;;;;5032223;28;20021;-64
2023/08/06 10:35:37;;;;;;;5.63;3.03;;;18.70;84.60;;;;;;5040048;28;20055;-64
2023/08/06 10:38:09;;;;;;;3.35;2.05;;;18.70;84.70;;;;;;5031091;28;20495;-66
2023/08/06 10:40:35;;;;;;;;;;;18.70;84.90;;;;;;5043151;28;20490;-65
2023/08/06 10:43:03;;;;;;;3.90;2.55;;;18.70;85.00;;;;;;5036036;28;19960;-65
2023/08/06 10:45:30;;;;;;;4.82;3.55;;;18.70;85.00;;;;;;5043962;28;20112;-65
2023/08/06 10:47:57;;;;;;;3.60;2.35;;;18.70;85.10;;;;;;5047393;28;20102;-65
2023/08/06 10:50:23;;;;;;;2.50;1.48;;;18.60;85.20;;;;;;5046823;28;20427;-64
2023/08/06 10:52:49;;;;;;;1.17;0.70;;;18.50;85.20;;;;;;5052255;28;20025;-64
2023/08/06 10:55:26;;;;;;;0.75;0.47;;;18.40;85.10;;;;;;5055844;28;20052;-64
2023/08/06 10:57:52;;;;;;;0.82;0.45;;;18.30;84.70;;;;;;5047460;28;20086;-64
2023/08/06 11:00:18;;;;;;;0.20;0.20;;;18.10;84.90;;;;;;5030262;28;20056;-64
2023/08/06 11:02:44;;;;;;;0.73;0.40;;;18.00;85.00;;;;;;5040054;28;20075;-64
2023/08/06 11:05:11;;;;;;;0.22;0.22;;;17.90;85.20;;;;;;5037886;28;20068;-64
2023/08/06 11:07:37;;;;;;;0.20;0.20;;;17.90;85.30;;;;;;5053454;28;20021;-64
2023/08/06 11:10:08;;;;;;;0.38;0.38;;;17.90;85.30;;;;;;5049743;28;20034;-64
2023/08/06 11:12:34;;;;;;;0.32;0.30;;;17.90;85.10;;;;;;5056892;28;20036;-63
2023/08/06 11:15:01;;;;;;;0.30;0.30;;;17.80;85.00;;;;;;5045337;28;20435;-63
2023/08/06 11:17:29;;;;;;;0.25;0.25;;;17.70;85.00;;;;;;5052678;28;20029;-64
2023/08/06 11:19:55;;;;;;;0.43;0.40;;;17.80;85.20;;;;;;5046957;28;20044;-63
2023/08/06 11:22:22;;;;;;;0.32;0.32;;;17.70;85.10;;;;;;5046421;28;20087;-64
2023/08/06 11:24:48;;;;;;;0.30;0.30;;;17.80;85.30;;;;;;5048462;28;20052;-63
2023/08/06 11:27:15;;;;;;;0.77;0.30;;;17.70;85.20;;;;;;5037313;28;20173;-63
2023/08/06 11:29:42;;;;;;;0.50;0.30;;;17.70;85.20;;;;;;5050734;28;20044;-63
2023/08/06 11:32:11;;;;;;;0.75;0.75;;;17.70;85.10;;;;;;5044330;28;20029;-65
2023/08/06 11:34:37;;;;;;;0.28;0.28;;;17.60;85.00;;;;;;5049146;28;20029;-63
2023/08/06 11:37:07;;;;;;;0.50;0.40;;;17.60;85.10;;;;;;5049873;28;20585;-65
2023/08/06 11:39:33;;;;;;;0.65;0.40;;;17.60;85.20;;;;;;5042243;28;20044;-65
2023/08/06 11:42:02;;;;;;;0.22;0.22;;;17.50;85.30;;;;;;5052397;28;20075;-65
2023/08/06 11:44:34;;;;;;;0.82;0.57;;;17.60;86.00;;;;;;5046523;28;20329;-66
2023/08/06 11:47:01;;;;;;;;;;;17.50;85.50;;;;;;5053236;28;20460;-65
2023/08/06 11:49:44;;;;;;;0.25;0.25;;;17.50;85.60;;;;;;5043549;28;19917;-63
2023/08/06 11:52:11;;;;;;;0.35;0.35;;;17.50;85.70;;;;;;5052820;28;20021;-65
2023/08/06 11:54:37;;;;;;;0.55;0.40;;;17.50;85.80;;;;;;5048141;28;20049;-65
2023/08/06 11:57:06;;;;;;;0.30;0.30;;;17.40;85.80;;;;;;5053260;28;20498;-63
2023/08/06 11:59:32;;;;;;;0.40;0.40;;;17.40;85.80;;;;;;5044809;28;20037;-64
2023/08/06 12:02:00;;;;;;;0.50;0.50;;;17.40;85.90;;;;;;5047411;28;20080;-63
2023/08/06 12:04:25;;;;;;;0.50;0.50;;;17.40;85.80;;;;;;5050779;28;20072;-65
2023/08/06 12:06:51;;;;;;;0.40;0.40;;;17.40;85.90;;;;;;5036706;28;20488;-65
2023/08/06 12:09:17;;;;;;;5.07;1.15;;;17.40;86.00;;;;;;5045542;28;20024;-64
2023/08/06 12:11:42;;;;;;;0.40;0.38;;;17.40;85.90;;;;;;5043573;28;20037;-65
2023/08/06 12:14:08;;;;;;;0.77;0.38;;;17.40;85.90;;;;;;5044380;28;20075;-65
2023/08/06 12:16:36;;;;;;;0.70;0.57;;;17.30;85.80;;;;;;5050575;28;20036;-65
2023/08/06 12:19:01;;;;;;;1.00;0.50;;;17.30;85.90;;;;;;5039011;28;20067;-65
2023/08/06 12:21:27;;;;;;;1.35;0.80;;;17.30;86.00;;;;;;5039460;28;20037;-64
2023/08/06 12:23:52;;;;;;;1.30;0.65;;;17.30;86.00;;;;;;5047062;28;20033;-65
2023/08/06 12:26:18;;;;;;;1.20;0.75;;;17.20;86.00;;;;;;5046986;28;20488;-65
2023/08/06 12:28:44;;;;;;;1.65;0.70;;;17.20;86.00;;;;;;5048451;28;20029;-65
2023/08/06 12:31:09;;;;;;;0.47;0.43;;;17.20;86.10;;;;;;5045778;28;20033;-63
2023/08/06 12:33:35;;;;;;;1.02;0.90;;;17.10;86.20;;;;;;5054306;28;20492;-65
2023/08/06 12:36:01;;;;;;;0.73;0.60;;;17.10;86.20;;;;;;5045549;28;20120;-65
2023/08/06 12:38:26;;;;;;;1.35;0.80;;;17.10;86.30;;;;;;5042139;28;20029;-65
2023/08/06 12:40:52;;;;;;;2.65;1.10;;;17.10;86.40;;;;;;5044934;28;20041;-64
2023/08/06 12:43:18;;;;;;;0.85;0.75;;;17.10;86.40;;;;;;5053375;28;20033;-64
2023/08/06 12:45:43;;;;;;;1.45;0.90;;;17.10;86.40;;;;;;5048153;28;20330;-65